An Run Da 2 — BHNX — position and weather

sailwx.info

Track history (hours):
 
Tides and Currents Weather Stations Pressure Air Temp Water Temp Dewpoint Dewpoint Depression Visibility Wind Speed Wind Dir Waves Ship Positions

An Run Da 2

Last reported at 2014-Sep-18 07:31 UTC. Time now 2014-Sep-20 05:56 UTC.
Position N 40°33' E 121°27'.

Length 147 m; draft 5.4 m.

Type: Cargo ship. MMSI: 413360230.

Date/timePositionNaut miles runAvg speedWind from/ knotsBaromVisibWave heightAir tempDewpointWater temp
2014-Sep-18 07:31N 40°33' E 121°27'  
2014-Sep-15 17:30N 39°28' E 119°44'0 0.0
2014-Sep-15 00:06N 39°28' E 119°44'0 0.0
2014-Sep-14 23:30N 39°28' E 119°44'138 6.6
2014-Sep-14 02:33N 38°01' E 122°01'6011.4
2014-Sep-13 21:15N 37°17' E 122°53'810.5
2014-Sep-13 20:30N 37°09' E 122°53'1110.1
2014-Sep-13 19:28N 36°58' E 122°52'1010.0
2014-Sep-13 18:30N 36°49' E 122°54'35010.9
2014-Sep-12 10:26N 30°59' E 122°32'1213.7
2014-Sep-12 09:33N 31°02' E 122°18'2812.3
2014-Sep-12 07:15N 31°13' E 121°48'7 9.3
2014-Sep-12 06:33N 31°18' E 121°43'8 8.1
2014-Sep-12 05:33N 31°23' E 121°35'5 4.7
2014-Sep-12 04:33N 31°22' E 121°30'5 4.7
2014-Sep-12 03:31N 31°18' E 121°34'5 5.5
2014-Sep-12 02:33N 31°14' E 121°29'6 5.4
2014-Sep-12 01:29N 31°09' E 121°27'3 3.3
2014-Sep-12 00:31N 31°05' E 121°28'0 0.0
2014-Sep-11 23:27N 31°05' E 121°28'0 0.0
2014-Sep-11 22:19N 31°05' E 121°28'0 0.0
2014-Sep-11 20:33N 31°05' E 121°28'0 0.0
2014-Sep-11 19:32N 31°05' E 121°28'0 0.0
2014-Sep-11 17:33N 31°05' E 121°28'0 0.0
2014-Sep-11 16:12N 31°05' E 121°28'0 0.0
2014-Sep-11 15:33N 31°05' E 121°28'0 0.0
2014-Sep-11 14:31N 31°05' E 121°28'0 0.0
2014-Sep-11 13:20N 31°05' E 121°28'0 0.0
2014-Sep-11 12:29N 31°05' E 121°28'0 0.0
2014-Sep-11 11:31N 31°05' E 121°28'0 0.0
2014-Sep-11 10:28N 31°05' E 121°28'0 0.0
2014-Sep-11 09:30N 31°05' E 121°28'0 0.0
2014-Sep-11 08:32N 31°05' E 121°28'0 0.0
2014-Sep-11 07:33N 31°05' E 121°28'0 0.0
2014-Sep-11 06:32N 31°05' E 121°28'0 0.0
2014-Sep-11 05:25N 31°05' E 121°28'0 0.0
2014-Sep-11 04:22N 31°05' E 121°28'0 0.0
2014-Sep-11 02:32N 31°05' E 121°28'0 0.0
2014-Sep-11 01:26N 31°05' E 121°28'0 0.0
2014-Sep-11 00:28N 31°05' E 121°28'0 0.0
2014-Sep-10 23:20N 31°05' E 121°28'0 0.0
2014-Sep-10 22:30N 31°05' E 121°28'1 0.8
2014-Sep-10 21:28N 31°06' E 121°27'3 3.7
2014-Sep-10 20:32N 31°10' E 121°28'4 4.2
2014-Sep-10 19:30N 31°14' E 121°30'5 4.8
2014-Sep-10 18:33N 31°17' E 121°34'5 5.1
2014-Sep-10 17:33N 31°21' E 121°31'3 3.4
2014-Sep-10 16:33N 31°24' E 121°33'5 5.0
2014-Sep-10 15:33N 31°22' E 121°39'0 0.2
2014-Sep-10 14:31N 31°22' E 121°39'0 0.2
2014-Sep-10 13:28N 31°22' E 121°39'0 0.1
2014-Sep-10 12:10N 31°22' E 121°39'0 0.2
2014-Sep-10 11:28N 31°22' E 121°39'0 0.0
2014-Sep-10 10:22N 31°22' E 121°39'0 0.0
2014-Sep-10 09:04N 31°22' E 121°39'0 0.0
2014-Sep-10 08:21N 31°22' E 121°39'0 0.0
2014-Sep-10 07:32N 31°22' E 121°39'0 0.1
2014-Sep-10 06:24N 31°22' E 121°39'0 0.0
2014-Sep-10 05:32N 31°22' E 121°39'0 0.0
2014-Sep-10 04:33N 31°22' E 121°39'0 0.0
2014-Sep-10 03:17N 31°22' E 121°39'4 5.6
2014-Sep-10 02:33N 31°20' E 121°43'30 8.9
2014-Sep-09 23:09N 31°08' E 122°15'10 9.6
2014-Sep-09 22:05N 31°06' E 122°27'  
Track history (hours):
 
Tides and Currents Weather Stations Pressure Air Temp Water Temp Dewpoint Dewpoint Depression Visibility Wind Speed Wind Dir Waves Ship Positions

An Run Da 2

Last reported at 2014-Sep-18 07:31 UTC. Time now 2014-Sep-20 05:56 UTC.
Position N 40°33' E 121°27'.

Length 147 m; draft 5.4 m.

Type: Cargo ship. MMSI: 413360230.

Date/timePositionNaut miles runAvg speedWind from/ knotsBaromVisibWave heightAir tempDewpointWater temp
2014-Sep-18 07:31N 40°33' E 121°27'  
2014-Sep-15 17:30N 39°28' E 119°44'0 0.0
2014-Sep-15 00:06N 39°28' E 119°44'0 0.0
2014-Sep-14 23:30N 39°28' E 119°44'138 6.6
2014-Sep-14 02:33N 38°01' E 122°01'6011.4
2014-Sep-13 21:15N 37°17' E 122°53'810.5
2014-Sep-13 20:30N 37°09' E 122°53'1110.1
2014-Sep-13 19:28N 36°58' E 122°52'1010.0
2014-Sep-13 18:30N 36°49' E 122°54'35010.9
2014-Sep-12 10:26N 30°59' E 122°32'1213.7
2014-Sep-12 09:33N 31°02' E 122°18'2812.3
2014-Sep-12 07:15N 31°13' E 121°48'7 9.3
2014-Sep-12 06:33N 31°18' E 121°43'8 8.1
2014-Sep-12 05:33N 31°23' E 121°35'5 4.7
2014-Sep-12 04:33N 31°22' E 121°30'5 4.7
2014-Sep-12 03:31N 31°18' E 121°34'5 5.5
2014-Sep-12 02:33N 31°14' E 121°29'6 5.4
2014-Sep-12 01:29N 31°09' E 121°27'3 3.3
2014-Sep-12 00:31N 31°05' E 121°28'0 0.0
2014-Sep-11 23:27N 31°05' E 121°28'0 0.0
2014-Sep-11 22:19N 31°05' E 121°28'0 0.0
2014-Sep-11 20:33N 31°05' E 121°28'0 0.0
2014-Sep-11 19:32N 31°05' E 121°28'0 0.0
2014-Sep-11 17:33N 31°05' E 121°28'0 0.0
2014-Sep-11 16:12N 31°05' E 121°28'0 0.0
2014-Sep-11 15:33N 31°05' E 121°28'0 0.0
2014-Sep-11 14:31N 31°05' E 121°28'0 0.0
2014-Sep-11 13:20N 31°05' E 121°28'0 0.0
2014-Sep-11 12:29N 31°05' E 121°28'0 0.0
2014-Sep-11 11:31N 31°05' E 121°28'0 0.0
2014-Sep-11 10:28N 31°05' E 121°28'0 0.0
2014-Sep-11 09:30N 31°05' E 121°28'0 0.0
2014-Sep-11 08:32N 31°05' E 121°28'0 0.0
2014-Sep-11 07:33N 31°05' E 121°28'0 0.0
2014-Sep-11 06:32N 31°05' E 121°28'0 0.0
2014-Sep-11 05:25N 31°05' E 121°28'0 0.0
2014-Sep-11 04:22N 31°05' E 121°28'0 0.0
2014-Sep-11 02:32N 31°05' E 121°28'0 0.0
2014-Sep-11 01:26N 31°05' E 121°28'0 0.0
2014-Sep-11 00:28N 31°05' E 121°28'0 0.0
2014-Sep-10 23:20N 31°05' E 121°28'0 0.0
2014-Sep-10 22:30N 31°05' E 121°28'1 0.8
2014-Sep-10 21:28N 31°06' E 121°27'3 3.7
2014-Sep-10 20:32N 31°10' E 121°28'4 4.2
2014-Sep-10 19:30N 31°14' E 121°30'5 4.8
2014-Sep-10 18:33N 31°17' E 121°34'5 5.1
2014-Sep-10 17:33N 31°21' E 121°31'3 3.4
2014-Sep-10 16:33N 31°24' E 121°33'5 5.0
2014-Sep-10 15:33N 31°22' E 121°39'0 0.2
2014-Sep-10 14:31N 31°22' E 121°39'0 0.2
2014-Sep-10 13:28N 31°22' E 121°39'0 0.1
2014-Sep-10 12:10N 31°22' E 121°39'0 0.2
2014-Sep-10 11:28N 31°22' E 121°39'0 0.0
2014-Sep-10 10:22N 31°22' E 121°39'0 0.0
2014-Sep-10 09:04N 31°22' E 121°39'0 0.0
2014-Sep-10 08:21N 31°22' E 121°39'0 0.0
2014-Sep-10 07:32N 31°22' E 121°39'0 0.1
2014-Sep-10 06:24N 31°22' E 121°39'0 0.0
2014-Sep-10 05:32N 31°22' E 121°39'0 0.0
2014-Sep-10 04:33N 31°22' E 121°39'0 0.0
2014-Sep-10 03:17N 31°22' E 121°39'4 5.6
2014-Sep-10 02:33N 31°20' E 121°43'30 8.9
2014-Sep-09 23:09N 31°08' E 122°15'10 9.6
2014-Sep-09 22:05N 31°06' E 122°27'  

Dump ship's entire track history